sensor_id;sensor_type;location;lat;lon;timestamp;temperature;humidity
20041;DHT22;10181;48.072;9.884;2023-03-04T00:01:52;-1.20;99.90
20041;DHT22;10181;48.072;9.884;2023-03-04T00:04:17;-1.20;99.90
20041;DHT22;10181;48.072;9.884;2023-03-04T00:06:43;-1.20;99.90
20041;DHT22;10181;48.072;9.884;2023-03-04T00:09:08;-1.30;99.90
20041;DHT22;10181;48.072;9.884;2023-03-04T00:11:35;-1.30;99.90
20041;DHT22;10181;48.072;9.884;2023-03-04T00:14:01;-1.30;99.90
20041;DHT22;10181;48.072;9.884;2023-03-04T00:16:26;-1.30;99.90
20041;DHT22;10181;48.072;9.884;2023-03-04T00:18:54;-1.30;99.90
20041;DHT22;10181;48.072;9.884;2023-03-04T00:21:20;-1.40;99.90
20041;DHT22;10181;48.072;9.884;2023-03-04T00:23:46;-1.40;99.90
20041;DHT22;10181;48.072;9.884;2023-03-04T00:26:11;-1.40;99.90
20041;DHT22;10181;48.072;9.884;2023-03-04T00:28:38;-1.50;99.90
20041;DHT22;10181;48.072;9.884;2023-03-04T00:31:05;-1.40;99.90
20041;DHT22;10181;48.072;9.884;2023-03-04T00:33:31;-1.50;99.90
20041;DHT22;10181;48.072;9.884;2023-03-04T00:35:57;-1.50;99.90
20041;DHT22;10181;48.072;9.884;2023-03-04T00:38:22;-1.50;99.90
20041;DHT22;10181;48.072;9.884;2023-03-04T00:40:48;-1.40;99.90
20041;DHT22;10181;48.072;9.884;2023-03-04T00:43:13;-1.40;99.90
20041;DHT22;10181;48.072;9.884;2023-03-04T00:45:39;-1.40;99.90
20041;DHT22;10181;48.072;9.884;2023-03-04T00:48:05;-1.40;99.90
20041;DHT22;10181;48.072;9.884;2023-03-04T00:50:30;-1.50;99.90
20041;DHT22;10181;48.072;9.884;2023-03-04T00:52:56;-1.50;99.90
20041;DHT22;10181;48.072;9.884;2023-03-04T00:55:22;-1.60;99.90
20041;DHT22;10181;48.072;9.884;2023-03-04T00:57:47;-1.60;99.90
20041;DHT22;10181;48.072;9.884;2023-03-04T01:00:13;-1.60;99.90
20041;DHT22;10181;48.072;9.884;2023-03-04T01:02:39;-1.60;99.90
20041;DHT22;10181;48.072;9.884;2023-03-04T01:05:06;-1.70;99.90
20041;DHT22;10181;48.072;9.884;2023-03-04T01:07:32;-1.70;99.90
20041;DHT22;10181;48.072;9.884;2023-03-04T01:09:57;-1.70;99.90
20041;DHT22;10181;48.072;9.884;2023-03-04T01:12:23;-1.70;99.90
20041;DHT22;10181;48.072;9.884;2023-03-04T01:14:49;-1.70;99.90
20041;DHT22;10181;48.072;9.884;2023-03-04T01:17:14;-1.80;99.90
20041;DHT22;10181;48.072;9.884;2023-03-04T01:19:40;-1.90;99.90
20041;DHT22;10181;48.072;9.884;2023-03-04T01:22:06;-1.90;99.90
20041;DHT22;10181;48.072;9.884;2023-03-04T01:24:31;-1.90;99.90
20041;DHT22;10181;48.072;9.884;2023-03-04T01:26:57;-2.00;99.90
20041;DHT22;10181;48.072;9.884;2023-03-04T01:29:22;-2.00;99.90
20041;DHT22;10181;48.072;9.884;2023-03-04T01:31:49;-2.00;99.90
20041;DHT22;10181;48.072;9.884;2023-03-04T01:34:14;-2.00;99.90
20041;DHT22;10181;48.072;9.884;2023-03-04T01:36:42;-2.10;99.90
20041;DHT22;10181;48.072;9.884;2023-03-04T01:39:07;-2.10;99.90
20041;DHT22;10181;48.072;9.884;2023-03-04T01:41:33;-2.10;99.90
20041;DHT22;10181;48.072;9.884;2023-03-04T01:44:00;-2.10;99.90
20041;DHT22;10181;48.072;9.884;2023-03-04T01:46:28;-2.10;99.90
20041;DHT22;10181;48.072;9.884;2023-03-04T01:48:54;-2.20;99.90
20041;DHT22;10181;48.072;9.884;2023-03-04T01:51:20;-2.20;99.90
20041;DHT22;10181;48.072;9.884;2023-03-04T01:53:47;-2.20;99.90
20041;DHT22;10181;48.072;9.884;2023-03-04T01:56:28;-2.20;99.90
20041;DHT22;10181;48.072;9.884;2023-03-04T02:01:35;-2.10;99.90
20041;DHT22;10181;48.072;9.884;2023-03-04T02:04:02;-2.10;99.90
20041;DHT22;10181;48.072;9.884;2023-03-04T02:06:27;-2.20;99.90
20041;DHT22;10181;48.072;9.884;2023-03-04T02:08:53;-2.20;99.90
20041;DHT22;10181;48.072;9.884;2023-03-04T02:11:19;-2.20;99.90
20041;DHT22;10181;48.072;9.884;2023-03-04T02:13:45;-2.20;99.90
20041;DHT22;10181;48.072;9.884;2023-03-04T02:16:10;-2.20;99.90
20041;DHT22;10181;48.072;9.884;2023-03-04T02:18:36;-2.30;99.90
20041;DHT22;10181;48.072;9.884;2023-03-04T02:21:21;-2.30;99.90
20041;DHT22;10181;48.072;9.884;2023-03-04T02:26:36;-2.30;99.90
20041;DHT22;10181;48.072;9.884;2023-03-04T02:29:04;-2.30;99.90
20041;DHT22;10181;48.072;9.884;2023-03-04T02:31:33;-2.30;99.90
20041;DHT22;10181;48.072;9.884;2023-03-04T02:34:02;-2.30;99.90
20041;DHT22;10181;48.072;9.884;2023-03-04T02:36:29;-2.40;99.90
20041;DHT22;10181;48.072;9.884;2023-03-04T02:39:01;-2.40;99.90
20041;DHT22;10181;48.072;9.884;2023-03-04T02:41:28;-2.40;99.90
20041;DHT22;10181;48.072;9.884;2023-03-04T02:43:55;-2.40;99.90
20041;DHT22;10181;48.072;9.884;2023-03-04T02:46:21;-2.40;99.90
20041;DHT22;10181;48.072;9.884;2023-03-04T02:48:48;-2.40;99.90
20041;DHT22;10181;48.072;9.884;2023-03-04T02:51:13;-2.40;99.90
20041;DHT22;10181;48.072;9.884;2023-03-04T02:53:39;-2.40;99.90
20041;DHT22;10181;48.072;9.884;2023-03-04T02:56:05;-2.50;99.90
20041;DHT22;10181;48.072;9.884;2023-03-04T02:58:31;-2.50;99.90
20041;DHT22;10181;48.072;9.884;2023-03-04T03:00:56;-2.50;99.90
20041;DHT22;10181;48.072;9.884;2023-03-04T03:03:22;-2.50;99.90
20041;DHT22;10181;48.072;9.884;2023-03-04T03:05:48;-2.60;99.90
20041;DHT22;10181;48.072;9.884;2023-03-04T03:08:13;-2.60;99.90
20041;DHT22;10181;48.072;9.884;2023-03-04T03:10:39;-2.60;99.90
20041;DHT22;10181;48.072;9.884;2023-03-04T03:13:05;-2.70;99.90
20041;DHT22;10181;48.072;9.884;2023-03-04T03:15:30;-2.70;99.90
20041;DHT22;10181;48.072;9.884;2023-03-04T03:17:56;-2.70;99.90
20041;DHT22;10181;48.072;9.884;2023-03-04T03:20:22;-2.70;99.90
20041;DHT22;10181;48.072;9.884;2023-03-04T03:22:48;-2.70;99.90
20041;DHT22;10181;48.072;9.884;2023-03-04T03:25:14;-2.70;99.90
20041;DHT22;10181;48.072;9.884;2023-03-04T03:27:40;-2.70;99.90
20041;DHT22;10181;48.072;9.884;2023-03-04T03:30:08;-2.70;99.90
20041;DHT22;10181;48.072;9.884;2023-03-04T03:32:34;-2.70;99.90
20041;DHT22;10181;48.072;9.884;2023-03-04T03:35:00;-2.70;99.90
20041;DHT22;10181;48.072;9.884;2023-03-04T03:37:26;-2.70;99.90
20041;DHT22;10181;48.072;9.884;2023-03-04T03:39:51;-2.70;99.90
20041;DHT22;10181;48.072;9.884;2023-03-04T03:42:17;-2.80;99.90
20041;DHT22;10181;48.072;9.884;2023-03-04T03:44:42;-2.70;99.90
20041;DHT22;10181;48.072;9.884;2023-03-04T03:47:08;-2.70;99.90
20041;DHT22;10181;48.072;9.884;2023-03-04T03:49:34;-2.80;99.90
20041;DHT22;10181;48.072;9.884;2023-03-04T03:51:59;-2.70;99.90
20041;DHT22;10181;48.072;9.884;2023-03-04T03:54:25;-2.70;99.90
20041;DHT22;10181;48.072;9.884;2023-03-04T03:56:50;-2.80;99.90
20041;DHT22;10181;48.072;9.884;2023-03-04T03:59:16;-2.80;99.90
20041;DHT22;10181;48.072;9.884;2023-03-04T04:01:42;-2.80;99.90
20041;DHT22;10181;48.072;9.884;2023-03-04T04:04:08;-2.80;99.90
20041;DHT22;10181;48.072;9.884;2023-03-04T04:06:33;-2.80;99.90
20041;DHT22;10181;48.072;9.884;2023-03-04T04:08:59;-2.80;99.90
20041;DHT22;10181;48.072;9.884;2023-03-04T04:11:24;-2.80;99.90
20041;DHT22;10181;48.072;9.884;2023-03-04T04:13:50;-2.90;99.90
20041;DHT22;10181;48.072;9.884;2023-03-04T04:16:15;-2.90;99.90
20041;DHT22;10181;48.072;9.884;2023-03-04T04:18:41;-2.90;99.90
20041;DHT22;10181;48.072;9.884;2023-03-04T04:21:07;-2.90;99.90
20041;DHT22;10181;48.072;9.884;2023-03-04T04:23:33;-2.90;99.90
20041;DHT22;10181;48.072;9.884;2023-03-04T04:25:59;-2.90;99.90
20041;DHT22;10181;48.072;9.884;2023-03-04T04:28:24;-2.90;99.90
20041;DHT22;10181;48.072;9.884;2023-03-04T04:30:50;-2.90;99.90
20041;DHT22;10181;48.072;9.884;2023-03-04T04:33:16;-2.90;99.90
20041;DHT22;10181;48.072;9.884;2023-03-04T04:35:41;-3.00;99.90
20041;DHT22;10181;48.072;9.884;2023-03-04T04:38:08;-3.00;99.90
20041;DHT22;10181;48.072;9.884;2023-03-04T04:40:34;-3.10;99.90
20041;DHT22;10181;48.072;9.884;2023-03-04T04:43:01;-3.10;99.90
20041;DHT22;10181;48.072;9.884;2023-03-04T04:45:26;-3.10;99.90
20041;DHT22;10181;48.072;9.884;2023-03-04T04:47:53;-3.00;99.90
20041;DHT22;10181;48.072;9.884;2023-03-04T04:50:19;-3.10;99.90
20041;DHT22;10181;48.072;9.884;2023-03-04T04:52:45;-3.10;99.90
20041;DHT22;10181;48.072;9.884;2023-03-04T04:55:11;-3.20;99.90
20041;DHT22;10181;48.072;9.884;2023-03-04T04:57:37;-3.20;99.90
20041;DHT22;10181;48.072;9.884;2023-03-04T05:00:04;-3.20;99.90
20041;DHT22;10181;48.072;9.884;2023-03-04T05:02:30;-3.10;99.90
20041;DHT22;10181;48.072;9.884;2023-03-04T05:05:01;-3.10;99.90
20041;DHT22;10181;48.072;9.884;2023-03-04T05:07:27;-3.10;99.90
20041;DHT22;10181;48.072;9.884;2023-03-04T05:09:52;-3.20;99.90
20041;DHT22;10181;48.072;9.884;2023-03-04T05:12:18;-3.20;99.90
20041;DHT22;10181;48.072;9.884;2023-03-04T05:14:44;-3.20;99.90
20041;DHT22;10181;48.072;9.884;2023-03-04T05:17:09;-3.20;99.90
20041;DHT22;10181;48.072;9.884;2023-03-04T05:19:35;-3.20;99.90
20041;DHT22;10181;48.072;9.884;2023-03-04T05:22:00;-3.20;99.90
20041;DHT22;10181;48.072;9.884;2023-03-04T05:24:26;-3.20;99.90
20041;DHT22;10181;48.072;9.884;2023-03-04T05:26:51;-3.20;99.90
20041;DHT22;10181;48.072;9.884;2023-03-04T05:29:17;-3.20;99.90
20041;DHT22;10181;48.072;9.884;2023-03-04T05:31:43;-3.20;99.90
20041;DHT22;10181;48.072;9.884;2023-03-04T05:34:09;-3.20;99.90
20041;DHT22;10181;48.072;9.884;2023-03-04T05:36:34;-3.20;99.90
20041;DHT22;10181;48.072;9.884;2023-03-04T05:39:00;-3.10;99.90
20041;DHT22;10181;48.072;9.884;2023-03-04T05:41:26;-3.10;99.90
20041;DHT22;10181;48.072;9.884;2023-03-04T05:43:51;-3.00;99.90
20041;DHT22;10181;48.072;9.884;2023-03-04T05:46:17;-3.00;99.90
20041;DHT22;10181;48.072;9.884;2023-03-04T05:48:48;-2.90;99.90
20041;DHT22;10181;48.072;9.884;2023-03-04T05:51:13;-2.90;99.90
20041;DHT22;10181;48.072;9.884;2023-03-04T05:53:40;-2.90;99.90
20041;DHT22;10181;48.072;9.884;2023-03-04T05:56:10;-3.00;99.90
20041;DHT22;10181;48.072;9.884;2023-03-04T05:58:36;-3.00;99.90
20041;DHT22;10181;48.072;9.884;2023-03-04T06:01:02;-3.00;99.90
20041;DHT22;10181;48.072;9.884;2023-03-04T06:03:28;-3.10;99.90
20041;DHT22;10181;48.072;9.884;2023-03-04T06:05:54;-3.20;99.90
20041;DHT22;10181;48.072;9.884;2023-03-04T06:08:20;-3.10;99.90
20041;DHT22;10181;48.072;9.884;2023-03-04T06:10:46;-3.20;99.90
20041;DHT22;10181;48.072;9.884;2023-03-04T06:13:11;-3.20;99.90
20041;DHT22;10181;48.072;9.884;2023-03-04T06:15:38;-3.30;99.90
20041;DHT22;10181;48.072;9.884;2023-03-04T06:18:05;-3.30;99.90
20041;DHT22;10181;48.072;9.884;2023-03-04T06:20:31;-3.30;99.90
20041;DHT22;10181;48.072;9.884;2023-03-04T06:22:57;-3.30;99.90
20041;DHT22;10181;48.072;9.884;2023-03-04T06:25:23;-3.20;99.90
20041;DHT22;10181;48.072;9.884;2023-03-04T06:27:49;-3.30;99.90
20041;DHT22;10181;48.072;9.884;2023-03-04T06:30:15;-3.20;99.90
20041;DHT22;10181;48.072;9.884;2023-03-04T06:32:41;-3.20;99.90
20041;DHT22;10181;48.072;9.884;2023-03-04T06:35:10;-3.20;99.90
20041;DHT22;10181;48.072;9.884;2023-03-04T06:37:36;-3.10;99.90
20041;DHT22;10181;48.072;9.884;2023-03-04T06:40:02;-3.10;99.90
20041;DHT22;10181;48.072;9.884;2023-03-04T06:42:28;-3.00;99.90
20041;DHT22;10181;48.072;9.884;2023-03-04T06:44:54;-2.90;99.90
20041;DHT22;10181;48.072;9.884;2023-03-04T06:47:19;-2.90;99.90
20041;DHT22;10181;48.072;9.884;2023-03-04T06:49:45;-2.80;99.90
20041;DHT22;10181;48.072;9.884;2023-03-04T06:52:11;-2.80;99.90
20041;DHT22;10181;48.072;9.884;2023-03-04T06:54:37;-2.70;99.90
20041;DHT22;10181;48.072;9.884;2023-03-04T06:57:03;-2.70;99.90
20041;DHT22;10181;48.072;9.884;2023-03-04T06:59:29;-2.60;99.90
20041;DHT22;10181;48.072;9.884;2023-03-04T07:01:54;-2.50;99.90
20041;DHT22;10181;48.072;9.884;2023-03-04T07:04:20;-2.40;99.90
20041;DHT22;10181;48.072;9.884;2023-03-04T07:06:48;-2.40;99.90
20041;DHT22;10181;48.072;9.884;2023-03-04T07:09:14;-2.30;99.90
20041;DHT22;10181;48.072;9.884;2023-03-04T07:11:39;-2.20;99.90
20041;DHT22;10181;48.072;9.884;2023-03-04T07:14:05;-2.10;99.90
20041;DHT22;10181;48.072;9.884;2023-03-04T07:16:30;-2.10;99.90
20041;DHT22;10181;48.072;9.884;2023-03-04T07:18:56;-1.90;99.90
20041;DHT22;10181;48.072;9.884;2023-03-04T07:21:22;-1.90;99.90
20041;DHT22;10181;48.072;9.884;2023-03-04T07:23:47;-1.70;99.90
20041;DHT22;10181;48.072;9.884;2023-03-04T07:26:13;-1.60;99.90
20041;DHT22;10181;48.072;9.884;2023-03-04T07:28:40;-1.50;99.90
20041;DHT22;10181;48.072;9.884;2023-03-04T07:31:28;-1.40;99.90
20041;DHT22;10181;48.072;9.884;2023-03-04T07:33:59;-1.20;99.90
20041;DHT22;10181;48.072;9.884;2023-03-04T07:36:26;-1.20;99.90
20041;DHT22;10181;48.072;9.884;2023-03-04T07:38:52;-1.10;99.90
20041;DHT22;10181;48.072;9.884;2023-03-04T07:41:19;-1.10;99.90
20041;DHT22;10181;48.072;9.884;2023-03-04T07:43:45;-1.00;99.90
20041;DHT22;10181;48.072;9.884;2023-03-04T07:46:11;-0.90;99.90
20041;DHT22;10181;48.072;9.884;2023-03-04T07:48:37;-0.80;99.90
20041;DHT22;10181;48.072;9.884;2023-03-04T07:53:37;-0.60;99.90
20041;DHT22;10181;48.072;9.884;2023-03-04T07:56:04;-0.40;99.90
20041;DHT22;10181;48.072;9.884;2023-03-04T07:58:30;-0.30;99.90
20041;DHT22;10181;48.072;9.884;2023-03-04T08:00:56;-0.10;99.90
20041;DHT22;10181;48.072;9.884;2023-03-04T08:03:22;0.00;99.90
20041;DHT22;10181;48.072;9.884;2023-03-04T08:05:48;0.20;99.90
20041;DHT22;10181;48.072;9.884;2023-03-04T08:08:17;0.30;99.90
20041;DHT22;10181;48.072;9.884;2023-03-04T08:10:42;0.40;99.90
20041;DHT22;10181;48.072;9.884;2023-03-04T08:13:09;0.50;99.90
20041;DHT22;10181;48.072;9.884;2023-03-04T08:15:39;0.50;99.90
20041;DHT22;10181;48.072;9.884;2023-03-04T08:18:05;0.70;99.90
20041;DHT22;10181;48.072;9.884;2023-03-04T08:20:30;0.80;99.90
20041;DHT22;10181;48.072;9.884;2023-03-04T08:22:56;1.00;99.90
20041;DHT22;10181;48.072;9.884;2023-03-04T08:25:21;1.10;99.90
20041;DHT22;10181;48.072;9.884;2023-03-04T08:27:47;1.20;99.90
20041;DHT22;10181;48.072;9.884;2023-03-04T08:30:13;1.30;99.90
20041;DHT22;10181;48.072;9.884;2023-03-04T08:32:38;1.40;99.90
20041;DHT22;10181;48.072;9.884;2023-03-04T08:35:04;1.50;99.90
20041;DHT22;10181;48.072;9.884;2023-03-04T08:37:30;1.60;99.90
20041;DHT22;10181;48.072;9.884;2023-03-04T08:39:56;1.60;99.90
20041;DHT22;10181;48.072;9.884;2023-03-04T08:42:21;1.70;99.90
20041;DHT22;10181;48.072;9.884;2023-03-04T08:44:48;1.90;99.90
20041;DHT22;10181;48.072;9.884;2023-03-04T08:47:14;2.00;99.90
20041;DHT22;10181;48.072;9.884;2023-03-04T08:49:40;1.90;99.90
20041;DHT22;10181;48.072;9.884;2023-03-04T08:52:05;2.10;99.90
20041;DHT22;10181;48.072;9.884;2023-03-04T08:54:31;2.40;99.90
20041;DHT22;10181;48.072;9.884;2023-03-04T08:56:57;2.60;99.90
20041;DHT22;10181;48.072;9.884;2023-03-04T08:59:23;3.00;99.90
20041;DHT22;10181;48.072;9.884;2023-03-04T09:01:48;2.90;99.90
20041;DHT22;10181;48.072;9.884;2023-03-04T09:04:14;2.90;99.90
20041;DHT22;10181;48.072;9.884;2023-03-04T09:06:39;2.90;99.90
20041;DHT22;10181;48.072;9.884;2023-03-04T09:09:05;2.90;99.90
20041;DHT22;10181;48.072;9.884;2023-03-04T09:11:31;3.20;99.90
20041;DHT22;10181;48.072;9.884;2023-03-04T09:13:56;3.20;99.90
20041;DHT22;10181;48.072;9.884;2023-03-04T09:16:22;3.10;99.90
20041;DHT22;10181;48.072;9.884;2023-03-04T09:18:48;3.00;99.90
20041;DHT22;10181;48.072;9.884;2023-03-04T09:21:13;3.00;99.90
20041;DHT22;10181;48.072;9.884;2023-03-04T09:23:40;3.40;99.90
20041;DHT22;10181;48.072;9.884;2023-03-04T09:26:18;3.70;99.90
20041;DHT22;10181;48.072;9.884;2023-03-04T09:28:45;3.90;99.90
20041;DHT22;10181;48.072;9.884;2023-03-04T09:31:12;3.90;99.90
20041;DHT22;10181;48.072;9.884;2023-03-04T09:33:38;3.70;99.90
20041;DHT22;10181;48.072;9.884;2023-03-04T09:36:07;3.80;99.90
20041;DHT22;10181;48.072;9.884;2023-03-04T09:38:32;3.60;99.90
20041;DHT22;10181;48.072;9.884;2023-03-04T09:41:01;3.50;99.90
20041;DHT22;10181;48.072;9.884;2023-03-04T09:43:28;3.50;99.90
20041;DHT22;10181;48.072;9.884;2023-03-04T09:45:59;3.60;99.90
20041;DHT22;10181;48.072;9.884;2023-03-04T09:48:33;3.50;99.90
20041;DHT22;10181;48.072;9.884;2023-03-04T09:56:22;3.60;99.90
20041;DHT22;10181;48.072;9.884;2023-03-04T10:03:14;3.90;99.90
20041;DHT22;10181;48.072;9.884;2023-03-04T10:05:20;4.10;99.90
20041;DHT22;10181;48.072;9.884;2023-03-04T10:07:55;4.10;99.90
20041;DHT22;10181;48.072;9.884;2023-03-04T10:10:27;4.20;99.90
20041;DHT22;10181;48.072;9.884;2023-03-04T10:12:54;4.20;99.90
20041;DHT22;10181;48.072;9.884;2023-03-04T10:15:35;4.30;99.90
20041;DHT22;10181;48.072;9.884;2023-03-04T10:18:21;4.30;99.90
20041;DHT22;10181;48.072;9.884;2023-03-04T10:21:07;4.30;99.90
20041;DHT22;10181;48.072;9.884;2023-03-04T10:23:34;4.40;99.90
20041;DHT22;10181;48.072;9.884;2023-03-04T10:26:11;4.50;99.90
20041;DHT22;10181;48.072;9.884;2023-03-04T10:28:37;4.60;99.90
20041;DHT22;10181;48.072;9.884;2023-03-04T10:31:20;4.70;99.90
20041;DHT22;10181;48.072;9.884;2023-03-04T10:33:53;4.70;99.90
20041;DHT22;10181;48.072;9.884;2023-03-04T10:38:51;4.70;99.90
20041;DHT22;10181;48.072;9.884;2023-03-04T10:41:22;4.80;99.90
20041;DHT22;10181;48.072;9.884;2023-03-04T10:44:00;4.80;99.90
20041;DHT22;10181;48.072;9.884;2023-03-04T10:46:26;4.90;99.90
20041;DHT22;10181;48.072;9.884;2023-03-04T10:48:53;5.00;99.90
20041;DHT22;10181;48.072;9.884;2023-03-04T10:53:49;5.10;99.90
20041;DHT22;10181;48.072;9.884;2023-03-04T11:01:50;5.30;99.90
20041;DHT22;10181;48.072;9.884;2023-03-04T11:04:18;5.40;99.90
20041;DHT22;10181;48.072;9.884;2023-03-04T11:06:44;5.60;99.90
20041;DHT22;10181;48.072;9.884;2023-03-04T11:09:30;5.60;99.90
20041;DHT22;10181;48.072;9.884;2023-03-04T11:11:59;5.70;99.90
20041;DHT22;10181;48.072;9.884;2023-03-04T11:14:49;5.90;99.90
20041;DHT22;10181;48.072;9.884;2023-03-04T11:17:25;6.00;99.90
20041;DHT22;10181;48.072;9.884;2023-03-04T11:22:27;6.10;99.90
20041;DHT22;10181;48.072;9.884;2023-03-04T11:25:01;6.20;99.90
20041;DHT22;10181;48.072;9.884;2023-03-04T11:27:43;6.20;99.90
20041;DHT22;10181;48.072;9.884;2023-03-04T11:32:46;6.10;99.90
20041;DHT22;10181;48.072;9.884;2023-03-04T11:35:30;6.10;99.90
20041;DHT22;10181;48.072;9.884;2023-03-04T11:38:05;6.20;99.90
20041;DHT22;10181;48.072;9.884;2023-03-04T11:40:43;6.20;99.90
20041;DHT22;10181;48.072;9.884;2023-03-04T11:43:31;6.20;99.90
20041;DHT22;10181;48.072;9.884;2023-03-04T11:48:52;6.30;99.90
20041;DHT22;10181;48.072;9.884;2023-03-04T11:51:37;6.50;99.90
20041;DHT22;10181;48.072;9.884;2023-03-04T11:56:50;7.10;99.90
20041;DHT22;10181;48.072;9.884;2023-03-04T12:02:03;7.80;99.90
20041;DHT22;10181;48.072;9.884;2023-03-04T12:15:29;8.30;99.90
20041;DHT22;10181;48.072;9.884;2023-03-04T12:18:16;8.30;99.90
20041;DHT22;10181;48.072;9.884;2023-03-04T12:26:32;9.30;99.90
20041;DHT22;10181;48.072;9.884;2023-03-04T12:49:14;10.00;99.90
20041;DHT22;10181;48.072;9.884;2023-03-04T12:51:59;9.30;99.90
20041;DHT22;10181;48.072;9.884;2023-03-04T12:54:44;8.60;99.90
20041;DHT22;10181;48.072;9.884;2023-03-04T12:57:23;8.70;99.90
20041;DHT22;10181;48.072;9.884;2023-03-04T13:08:12;8.90;99.90
20041;DHT22;10181;48.072;9.884;2023-03-04T13:10:40;9.30;99.90
20041;DHT22;10181;48.072;9.884;2023-03-04T13:13:34;9.30;99.90
20041;DHT22;10181;48.072;9.884;2023-03-04T13:16:02;9.10;99.90
20041;DHT22;10181;48.072;9.884;2023-03-04T13:18:33;9.00;99.90
20041;DHT22;10181;48.072;9.884;2023-03-04T13:23:46;8.50;99.90
20041;DHT22;10181;48.072;9.884;2023-03-04T13:28:50;8.00;99.90
20041;DHT22;10181;48.072;9.884;2023-03-04T13:31:20;8.20;99.90
20041;DHT22;10181;48.072;9.884;2023-03-04T13:33:53;8.60;99.90
20041;DHT22;10181;48.072;9.884;2023-03-04T13:36:34;8.90;99.90
20041;DHT22;10181;48.072;9.884;2023-03-04T13:47:19;8.60;99.90
20041;DHT22;10181;48.072;9.884;2023-03-04T13:49:45;9.00;99.90
20041;DHT22;10181;48.072;9.884;2023-03-04T13:52:37;9.10;99.90
20041;DHT22;10181;48.072;9.884;2023-03-04T13:57:57;8.90;99.90
20041;DHT22;10181;48.072;9.884;2023-03-04T14:00:23;8.90;99.90
20041;DHT22;10181;48.072;9.884;2023-03-04T14:02:49;8.90;99.90
20041;DHT22;10181;48.072;9.884;2023-03-04T14:05:15;8.60;99.90
20041;DHT22;10181;48.072;9.884;2023-03-04T14:07:41;8.50;99.90
20041;DHT22;10181;48.072;9.884;2023-03-04T14:10:22;8.40;99.90
20041;DHT22;10181;48.072;9.884;2023-03-04T14:12:58;8.40;99.90
20041;DHT22;10181;48.072;9.884;2023-03-04T14:15:29;8.50;99.90
20041;DHT22;10181;48.072;9.884;2023-03-04T14:17:57;8.40;99.90
20041;DHT22;10181;48.072;9.884;2023-03-04T14:20:35;8.20;99.90
20041;DHT22;10181;48.072;9.884;2023-03-04T14:23:05;8.00;99.90
20041;DHT22;10181;48.072;9.884;2023-03-04T14:25:46;8.10;99.90
20041;DHT22;10181;48.072;9.884;2023-03-04T14:28:15;8.20;99.90
20041;DHT22;10181;48.072;9.884;2023-03-04T14:30:42;8.20;99.90
20041;DHT22;10181;48.072;9.884;2023-03-04T14:33:14;8.00;99.90
20041;DHT22;10181;48.072;9.884;2023-03-04T14:35:48;7.80;99.90
20041;DHT22;10181;48.072;9.884;2023-03-04T14:38:31;7.60;99.90
20041;DHT22;10181;48.072;9.884;2023-03-04T14:41:16;7.30;99.90
20041;DHT22;10181;48.072;9.884;2023-03-04T14:43:56;7.10;99.90
20041;DHT22;10181;48.072;9.884;2023-03-04T14:46:28;7.20;99.90
20041;DHT22;10181;48.072;9.884;2023-03-04T14:48:55;7.40;99.90
20041;DHT22;10181;48.072;9.884;2023-03-04T14:51:49;7.60;99.90
20041;DHT22;10181;48.072;9.884;2023-03-04T14:54:35;7.80;99.90
20041;DHT22;10181;48.072;9.884;2023-03-04T14:57:21;7.40;99.90
20041;DHT22;10181;48.072;9.884;2023-03-04T14:59:48;7.10;99.90
20041;DHT22;10181;48.072;9.884;2023-03-04T15:04:48;6.90;99.90
20041;DHT22;10181;48.072;9.884;2023-03-04T15:07:26;6.90;99.90
20041;DHT22;10181;48.072;9.884;2023-03-04T15:09:54;6.70;99.90
20041;DHT22;10181;48.072;9.884;2023-03-04T15:12:27;6.60;99.90
20041;DHT22;10181;48.072;9.884;2023-03-04T15:14:59;6.60;99.90
20041;DHT22;10181;48.072;9.884;2023-03-04T15:17:38;6.40;99.90
20041;DHT22;10181;48.072;9.884;2023-03-04T15:22:54;5.90;99.90
20041;DHT22;10181;48.072;9.884;2023-03-04T15:25:20;5.80;99.90
20041;DHT22;10181;48.072;9.884;2023-03-04T15:27:47;5.60;99.90
20041;DHT22;10181;48.072;9.884;2023-03-04T15:30:33;5.60;99.90
20041;DHT22;10181;48.072;9.884;2023-03-04T15:32:59;5.60;99.90
20041;DHT22;10181;48.072;9.884;2023-03-04T15:35:31;5.50;99.90
20041;DHT22;10181;48.072;9.884;2023-03-04T15:37:57;5.30;99.90
20041;DHT22;10181;48.072;9.884;2023-03-04T15:40:29;5.10;99.90
20041;DHT22;10181;48.072;9.884;2023-03-04T15:42:57;5.10;99.90
20041;DHT22;10181;48.072;9.884;2023-03-04T15:45:30;5.10;99.90
20041;DHT22;10181;48.072;9.884;2023-03-04T15:47:56;5.10;99.90
20041;DHT22;10181;48.072;9.884;2023-03-04T15:50:27;5.00;99.90
20041;DHT22;10181;48.072;9.884;2023-03-04T15:52:56;5.00;99.90
20041;DHT22;10181;48.072;9.884;2023-03-04T15:55:24;4.90;99.90
20041;DHT22;10181;48.072;9.884;2023-03-04T15:57:53;4.90;99.90
20041;DHT22;10181;48.072;9.884;2023-03-04T16:00:19;4.90;99.90
20041;DHT22;10181;48.072;9.884;2023-03-04T16:02:45;4.80;99.90
20041;DHT22;10181;48.072;9.884;2023-03-04T16:05:11;4.90;99.90
20041;DHT22;10181;48.072;9.884;2023-03-04T16:07:38;4.90;99.90
20041;DHT22;10181;48.072;9.884;2023-03-04T16:10:17;5.10;99.90
20041;DHT22;10181;48.072;9.884;2023-03-04T16:12:44;5.00;99.90
20041;DHT22;10181;48.072;9.884;2023-03-04T16:15:18;5.20;99.90
20041;DHT22;10181;48.072;9.884;2023-03-04T16:17:45;5.40;99.90
20041;DHT22;10181;48.072;9.884;2023-03-04T16:20:14;5.50;99.90
20041;DHT22;10181;48.072;9.884;2023-03-04T16:22:41;5.50;99.90
20041;DHT22;10181;48.072;9.884;2023-03-04T16:25:12;5.50;99.90
20041;DHT22;10181;48.072;9.884;2023-03-04T16:27:38;5.30;99.90
20041;DHT22;10181;48.072;9.884;2023-03-04T16:30:06;4.90;99.90
20041;DHT22;10181;48.072;9.884;2023-03-04T16:32:32;4.70;99.90
20041;DHT22;10181;48.072;9.884;2023-03-04T16:34:58;4.50;99.90
20041;DHT22;10181;48.072;9.884;2023-03-04T16:37:23;4.20;99.90
20041;DHT22;10181;48.072;9.884;2023-03-04T16:39:49;3.90;99.90
20041;DHT22;10181;48.072;9.884;2023-03-04T16:42:18;3.70;99.90
20041;DHT22;10181;48.072;9.884;2023-03-04T16:44:47;3.80;99.90
20041;DHT22;10181;48.072;9.884;2023-03-04T16:47:13;3.70;99.90
20041;DHT22;10181;48.072;9.884;2023-03-04T16:49:39;3.40;99.90
20041;DHT22;10181;48.072;9.884;2023-03-04T16:52:05;3.20;99.90
20041;DHT22;10181;48.072;9.884;2023-03-04T16:54:33;3.00;99.90
20041;DHT22;10181;48.072;9.884;2023-03-04T16:56:59;2.90;99.90
20041;DHT22;10181;48.072;9.884;2023-03-04T16:59:26;2.90;99.90
20041;DHT22;10181;48.072;9.884;2023-03-04T17:01:53;2.80;99.90
20041;DHT22;10181;48.072;9.884;2023-03-04T17:04:20;2.70;99.90
20041;DHT22;10181;48.072;9.884;2023-03-04T17:06:46;2.50;99.90
20041;DHT22;10181;48.072;9.884;2023-03-04T17:09:11;2.30;99.90
20041;DHT22;10181;48.072;9.884;2023-03-04T17:11:37;2.20;99.90
20041;DHT22;10181;48.072;9.884;2023-03-04T17:14:03;2.10;99.90
20041;DHT22;10181;48.072;9.884;2023-03-04T17:16:29;1.90;99.90
20041;DHT22;10181;48.072;9.884;2023-03-04T17:18:55;1.80;99.90
20041;DHT22;10181;48.072;9.884;2023-03-04T17:21:24;1.70;99.90
20041;DHT22;10181;48.072;9.884;2023-03-04T17:23:51;1.70;99.90
20041;DHT22;10181;48.072;9.884;2023-03-04T17:26:16;1.60;99.90
20041;DHT22;10181;48.072;9.884;2023-03-04T17:28:46;1.50;99.90
20041;DHT22;10181;48.072;9.884;2023-03-04T17:31:14;1.40;99.90
20041;DHT22;10181;48.072;9.884;2023-03-04T17:33:41;1.30;99.90